Flight Track Log - Related Links

Times and Time Zones

All times are in EDT time to prevent confusion due to time zone crossing. See the DAL268 flight status page for this flight to view local times or setup timezone preferences in your user account.

Time Position Orientation Groundspeed Altitude Reporting Facility
EDT Latitude Longitude Course Direction KTS MPH feet Rate Location/Type
Thu 02:55:00 PM 37.6130 -122.3770 90° East 120 138  Level FlightAware ADS-B
Thu 02:55:27 PM 37.6308 -122.3650 28° Northeast 159 183 600 1,500 Climbing FlightAware ADS-B
Thu 02:55:44 PM 37.6416 -122.3550 36° Northeast 180 207 1,100 2,087 Climbing FlightAware ADS-B
Thu 02:55:50 PM 37.6453 -122.3500 47° Northeast 186 214 1,400 2,000 Climbing FlightAware ADS-B
Thu 02:55:56 PM 37.6488 -122.3450 49° Northeast 194 223 1,500 1,500 Climbing FlightAware ADS-B
Thu 02:56:02 PM 37.6526 -122.3400 46° Northeast 202 232 1,700 2,000 Climbing FlightAware ADS-B
Thu 02:56:17 PM 37.6629 -122.3260 47° Northeast 216 249 2,200 1,800 Climbing FlightAware ADS-B
Thu 02:56:32 PM 37.6740 -122.3120 45° Northeast 238 274 2,600 1,600 Climbing FlightAware ADS-B
Thu 02:56:47 PM 37.6865 -122.2960 45° Northeast 257 296 3,000 2,516 Climbing FlightAware ADS-B
Thu 02:57:03 PM 37.6993 -122.2810 43° Northeast 255 293 3,900 3,455 Climbing FlightAware ADS-B
Thu 02:57:20 PM 37.7135 -122.2630 45° Northeast 251 289 4,900 3,081 Climbing FlightAware ADS-B
Thu 02:57:40 PM 37.7314 -122.2410 44° Northeast 251 289 5,800 2,833 Climbing FlightAware ADS-B
Thu 02:57:56 PM 37.7448 -122.2250 43° Northeast 264 304 6,600 2,500 Climbing FlightAware ADS-B
Thu 02:58:04 PM 37.7522 -122.2160 44° Northeast 276 318 6,800 2,200 Climbing FlightAware ADS-B
Thu 02:58:26 PM 37.7734 -122.1900 44° Northeast 289 333 7,700 2,769 Climbing FlightAware ADS-B
Thu 02:58:43 PM 37.7894 -122.1700 45° Northeast 291 335 8,600 3,000 Climbing FlightAware ADS-B
Thu 02:58:52 PM 37.7981 -122.1600 42° Northeast 291 335 9,000 3,000 Climbing FlightAware ADS-B
Thu 02:59:01 PM 37.8073 -122.1500 41° Northeast 289 333 9,500 2,462 Climbing FlightAware ADS-B
Thu 02:59:31 PM 37.8402 -122.1180 38° Northeast 310 357 10,600 1,770 Climbing FlightAware ADS-B
Thu 03:00:02 PM 37.8780 -122.0830 36° Northeast 345 397 11,300 1,355 Climbing FlightAware ADS-B
Thu 03:00:33 PM 37.9195 -122.0440 37° Northeast 373 429 12,000 1,869 Climbing FlightAware ADS-B
Thu 03:01:03 PM 37.9623 -122.0040 36° Northeast 383 441 13,200 2,438 Climbing FlightAware ADS-B
Thu 03:01:37 PM 38.0104 -121.9600 36° Northeast 390 449 14,600 2,222 Climbing FlightAware ADS-B
Thu 03:02:24 PM 38.0809 -121.8940 36° Northeast 390 449 16,200 2,043 Climbing FlightAware ADS-B
Thu 03:03:11 PM 38.1520 -121.8260 37° Northeast 419 482 17,800 1,975 Climbing FlightAware ADS-B
Thu 03:03:43 PM 38.1920 -121.7640 51° Northeast 426 490 18,800 1,941 Climbing FlightAware ADS-B
Thu 03:04:19 PM 38.2350 -121.6930 52° Northeast 435 501 20,000 1,833 Climbing FlightAware ADS-B
Thu 03:04:55 PM 38.2830 -121.6220 49° Northeast 444 511 21,000 1,714 Climbing FlightAware ADS-B
Thu 03:05:29 PM 38.3300 -121.5530 49° Northeast 452 520 22,000 1,750 Climbing FlightAware ADS-B
Thu 03:06:07 PM 38.3820 -121.4770 49° Northeast 458 527 23,100 1,667 Climbing FlightAware ADS-B
Thu 03:06:41 PM 38.4280 -121.4050 51° Northeast 464 534 24,000 1,622 Climbing FlightAware ADS-B
Thu 03:07:21 PM 38.4820 -121.3180 52° Northeast 471 542 25,100 1,500 Climbing FlightAware ADS-B
Thu 03:07:57 PM 38.5300 -121.2410 51° Northeast 477 549 25,900 1,417 Climbing FlightAware ADS-B
Thu 03:08:33 PM 38.5790 -121.1610 52° Northeast 481 554 26,800 1,417 Climbing FlightAware ADS-B
Thu 03:09:09 PM 38.6300 -121.0800 51° Northeast 487 560 27,600 1,147 Climbing FlightAware ADS-B
Thu 03:09:41 PM 38.6750 -121.0070 52° Northeast 493 567 28,100 1,147 Climbing FlightAware ADS-B
Thu 03:10:17 PM 38.7280 -120.9220 51° Northeast 497 572 28,900 1,543 Climbing FlightAware ADS-B
Thu 03:10:51 PM 38.7750 -120.8460 52° Northeast 493 567 29,900 1,714 Climbing FlightAware ADS-B
Thu 03:11:27 PM 38.8270 -120.7620 52° Northeast 489 563 30,900 1,583 Climbing FlightAware ADS-B
Thu 03:12:03 PM 38.8740 -120.6850 52° Northeast 487 560 31,800 1,452 Climbing FlightAware ADS-B
Thu 03:12:29 PM 38.9130 -120.6210 52° Northeast 486 559 32,400 1,313 Climbing FlightAware ADS-B
Thu 03:13:07 PM 38.9650 -120.5370 51° Northeast 485 558 33,200 1,164 Climbing FlightAware ADS-B
Thu 03:13:36 PM 39.0010 -120.4770 52° Northeast 485 558 33,700 1,200 Climbing FlightAware ADS-B
Thu 03:14:17 PM 39.0620 -120.3780 52° Northeast 485 558 34,600 1,068 Climbing FlightAware ADS-B
Thu 03:14:49 PM 39.1060 -120.3050 52° Northeast 488 562 35,000 358 Climbing FlightAware ADS-B
Thu 03:15:24 PM 39.1560 -120.2230 52° Northeast 493 567 35,000  Level FlightAware ADS-B
Thu 03:16:00 PM 39.2050 -120.1410 52° Northeast 494 568 35,000  Level FlightAware ADS-B
Thu 03:16:36 PM 39.2560 -120.0570 52° Northeast 491 565 35,000  Level FlightAware ADS-B
Thu 03:17:08 PM 39.3010 -119.9820 52° Northeast 491 565 35,000  Level FlightAware ADS-B
Thu 03:17:43 PM 39.3490 -119.9010 53° Northeast 489 563 35,000  Level FlightAware ADS-B
Thu 03:18:19 PM 39.3980 -119.8190 52° Northeast 487 560 35,000  Level FlightAware ADS-B
Thu 03:18:55 PM 39.4470 -119.7360 53° Northeast 485 558 35,000  Level FlightAware ADS-B
Thu 03:19:31 PM 39.4970 -119.6540 52° Northeast 487 560 35,000  Level FlightAware ADS-B
Thu 03:20:04 PM 39.5410 -119.5790 53° Northeast 488 562 35,000  Level FlightAware ADS-B
Thu 03:20:39 PM 39.5910 -119.4950 52° Northeast 489 563 35,000  Level FlightAware ADS-B
Thu 03:21:17 PM 39.6440 -119.4050 53° Northeast 490 564 35,000  Level FlightAware ADS-B
Thu 03:21:59 PM 39.7010 -119.3080 53° Northeast 489 563 35,000  Level FlightAware ADS-B
Thu 03:22:33 PM 39.7470 -119.2290 53° Northeast 489 563 35,000  Level FlightAware ADS-B
Thu 03:23:09 PM 39.7970 -119.1440 53° Northeast 489 563 35,000  Level FlightAware ADS-B
Thu 03:23:43 PM 39.8390 -119.0630 56° Northeast 483 556 35,000  Level FlightAware ADS-B
Thu 03:24:19 PM 39.8760 -118.9690 63° Northeast 483 556 35,000  Level FlightAware ADS-B
Thu 03:24:49 PM 39.9060 -118.8950 62° Northeast 480 552 35,000  Level FlightAware ADS-B
Thu 03:25:27 PM 39.9450 -118.8000 62° Northeast 477 549 35,000  Level FlightAware ADS-B
Thu 03:26:03 PM 39.9850 -118.7070 61° Northeast 476 548 35,000  Level FlightAware ADS-B
Thu 03:26:40 PM 40.0240 -118.6150 61° Northeast 476 548 35,000  Level FlightAware ADS-B
Thu 03:27:12 PM 40.0590 -118.5340 61° Northeast 478 550 35,000  Level FlightAware ADS-B
Thu 03:27:48 PM 40.0960 -118.4420 62° Northeast 479 551 35,000  Level FlightAware ADS-B
Thu 03:28:28 PM 40.1370 -118.3400 62° Northeast 474 545 35,000  Level FlightAware ADS-B
Thu 03:29:08 PM 40.1770 -118.2380 63° Northeast 474 545 35,000  Level FlightAware ADS-B
Thu 03:29:40 PM 40.2090 -118.1580 62° Northeast 474 545 35,000  Level FlightAware ADS-B
Thu 03:30:16 PM 40.2440 -118.0690 63° Northeast 474 545 35,000  Level FlightAware ADS-B
Thu 03:30:53 PM 40.2780 -117.9830 63° Northeast 474 545 35,000  Level FlightAware ADS-B
Thu 03:31:30 PM 40.3110 -117.9040 61° Northeast 474 545 35,000  Level FlightAware ADS-B
Thu 03:32:06 PM 40.3420 -117.8260 62° Northeast 474 545 35,000  Level FlightAware ADS-B
Thu 03:32:40 PM 40.3720 -117.7520 62° Northeast 474 545 35,000  Level FlightAware ADS-B
Thu 03:33:16 PM 40.4040 -117.6750 61° Northeast 474 545 35,000  Level FlightAware ADS-B
Thu 03:33:53 PM 40.4360 -117.5950 62° Northeast 474 545 35,000  Level FlightAware ADS-B
Thu 03:34:30 PM 40.4680 -117.5150 62° Northeast 474 545 35,000  Level FlightAware ADS-B
Thu 03:35:04 PM 40.4980 -117.4410 62° Northeast 474 545 35,000  Level FlightAware ADS-B
Thu 03:35:40 PM 40.5290 -117.3630 62° Northeast 474 545 35,000  Level FlightAware ADS-B
Thu 03:36:17 PM 40.5620 -117.2830 61° Northeast 474 545 35,000  Level FlightAware ADS-B
Thu 03:36:54 PM 40.5940 -117.2030 62° Northeast 474 545 35,000  Level FlightAware ADS-B
Thu 03:37:31 PM 40.6270 -117.1230 61° Northeast 474 545 35,000  Level FlightAware ADS-B
Thu 03:38:20 PM 40.6690 -117.0160 63° Northeast 474 545 35,000  Level FlightAware ADS-B
Thu 03:38:56 PM 40.7010 -116.9380 62° Northeast 474 545 35,000  Level FlightAware ADS-B
Thu 03:39:33 PM 40.7330 -116.8580 62° Northeast 474 545 35,000  Level FlightAware ADS-B
Thu 03:40:10 PM 40.7660 -116.7770 62° Northeast 474 545 35,000  Level FlightAware ADS-B
Thu 03:44:40 PM 41.0983 -115.8240 65° Northeast 490 564 35,000  Level FlightAware ADS-B
Thu 03:45:11 PM 41.1295 -115.7390 64° Northeast 485 558 35,000  Level FlightAware ADS-B
Thu 03:47:45 PM 41.2760 -115.3350 64° Northeast 476 548 35,000  Level FlightAware ADS-B
Thu 03:48:01 PM 41.2900 -115.2940 66° East 478 550 35,000  Level FlightAware ADS-B
Thu 03:48:03 PM 41.2920 -115.2880 66° East 478 550 35,000  Level FlightAware ADS-B
Thu 03:48:11 PM 41.3000 -115.2670 63° Northeast 478 550 35,000  Level FlightAware ADS-B
Thu 03:48:17 PM 41.3060 -115.2510 63° Northeast 478 550 35,000  Level FlightAware ADS-B
Thu 03:48:46 PM 41.3344 -115.1710 65° Northeast 479 551 35,000  Level FlightAware ADS-B
Thu 03:49:17 PM 41.3628 -115.0920 64° Northeast 474 545 35,000  Level FlightAware ADS-B
Thu 03:49:47 PM 41.3918 -115.0110 64° Northeast 473 544 35,000  Level FlightAware ADS-B
Thu 03:50:18 PM 41.4200 -114.9310 65° Northeast 473 544 35,000  Level FlightAware ADS-B
Thu 03:50:34 PM 41.4320 -114.9000 63° Northeast 473 544 35,000  Level FlightAware ADS-B
Thu 03:50:49 PM 41.4489 -114.8490 66° East 473 544 35,000  Level FlightAware ADS-B
Thu 03:50:58 PM 41.4510 -114.8460 47° Northeast 473 544 35,000  Level FlightAware ADS-B
Thu 03:51:19 PM 41.4769 -114.7700 66° East 472 543 35,000  Level FlightAware ADS-B
Thu 03:51:53 PM 41.5088 -114.6790 65° Northeast 475 547 35,000  Level FlightAware ADS-B
Thu 03:52:24 PM 41.5369 -114.5990 65° Northeast 478 550 35,000 167 Level FlightAware ADS-B
Thu 03:53:05 PM 41.5752 -114.4900 65° Northeast 478 550 35,200 800 Climbing FlightAware ADS-B
Thu 03:53:39 PM 41.6074 -114.3980 65° Northeast 473 544 36,000 1,273 Climbing FlightAware ADS-B
Thu 03:54:11 PM 41.6360 -114.3150 65° Northeast 469 540 36,600 968 Climbing FlightAware ADS-B
Thu 03:54:41 PM 41.6639 -114.2350 65° Northeast 471 542 37,000 387 Climbing FlightAware ADS-B
Thu 03:55:13 PM 41.6925 -114.1520 65° Northeast 470 541 37,000  Level FlightAware ADS-B
Thu 03:55:44 PM 41.7210 -114.0690 65° Northeast 465 535 37,000  Level FlightAware ADS-B
Thu 03:56:16 PM 41.7493 -113.9870 65° Northeast 465 535 37,000  Level FlightAware ADS-B
Thu 03:56:55 PM 41.7846 -113.8830 65° Northeast 466 536 37,000  Level FlightAware ADS-B
Thu 03:57:47 PM 41.8310 -113.7490 65° Northeast 468 539 37,000  Level FlightAware ADS-B
Thu 03:58:17 PM 41.8577 -113.6690 66° East 472 543 37,000  Level FlightAware ADS-B
Thu 03:58:55 PM 41.8920 -113.5690 65° Northeast 468 539 37,000  Level FlightAware ADS-B
Thu 03:59:12 PM 41.9074 -113.5220 66° East 469 540 37,000  Level FlightAware ADS-B
Thu 04:00:07 PM 41.9550 -113.3790 66° East 463 533 37,000  Level FlightAware ADS-B
Thu 04:00:19 PM 41.9663 -113.3460 65° Northeast 464 534 37,000  Level FlightAware ADS-B
Thu 04:01:01 PM 42.0028 -113.2370 66° East 466 536 37,000  Level FlightAware ADS-B
Thu 04:01:51 PM 42.0470 -113.1050 66° East 468 539 37,000  Level FlightAware ADS-B
Thu 04:02:03 PM 42.0573 -113.0730 67° East 469 540 37,000  Level FlightAware ADS-B
Thu 04:02:46 PM 42.0960 -112.9560 66° East 471 542 37,000  Level FlightAware ADS-B
Thu 04:03:34 PM 42.1382 -112.8280 66° East 471 542 37,000  Level FlightAware ADS-B
Thu 04:05:45 PM 42.2520 -112.4790 66° East 472 543 37,000  Level FlightAware ADS-B
Thu 04:06:17 PM 42.2800 -112.3930 66° East 470 541 37,000  Level FlightAware ADS-B
Thu 04:06:54 PM 42.3050 -112.3000 70° East 467 537 37,000  Level FlightAware ADS-B
Thu 04:07:30 PM 42.3220 -112.1900 78° East 467 537 37,000  Level FlightAware ADS-B
Thu 04:08:02 PM 42.3360 -112.0980 78° East 466 536 37,000  Level FlightAware ADS-B
Thu 04:08:20 PM 42.3442 -112.0450 78° East 467 537 37,000  Level FlightAware ADS-B
Thu 04:08:50 PM 42.3574 -111.9590 78° East 464 534 37,000  Level FlightAware ADS-B
Thu 04:09:43 PM 42.3803 -111.8090 78° East 466 536 37,000  Level FlightAware ADS-B
Thu 04:10:13 PM 42.3954 -111.7230 77° East 466 536 37,000  Level FlightAware ADS-B
Thu 04:10:55 PM 42.4160 -111.6070 76° East 466 536 37,000  Level FlightAware ADS-B
Thu 04:11:29 PM 42.4334 -111.5090 76° East 470 541 37,000  Level FlightAware ADS-B
Thu 04:12:23 PM 42.4590 -111.3610 77° East 465 535 37,000  Level FlightAware ADS-B
Thu 04:13:05 PM 42.4820 -111.2390 76° East 467 537 37,000  Level FlightAware ADS-B
Thu 04:13:47 PM 42.5090 -111.1390 70° East 467 537 37,000  Level FlightAware ADS-B
Thu 04:14:24 PM 42.5320 -111.0520 70° East 467 537 37,000  Level FlightAware ADS-B
Thu 04:15:01 PM 42.5550 -110.9660 70° East 467 537 37,000  Level FlightAware ADS-B
Thu 04:15:37 PM 42.5780 -110.8810 70° East 467 537 37,000  Level FlightAware ADS-B
Thu 04:16:14 PM 42.6010 -110.7950 70° East 467 537 37,000  Level FlightAware ADS-B
Thu 04:16:51 PM 42.6240 -110.7080 70° East 467 537 37,000  Level FlightAware ADS-B
Thu 04:17:27 PM 42.6470 -110.6230 70° East 467 537 37,000  Level FlightAware ADS-B
Thu 04:18:03 PM 42.6690 -110.5390 70° East 467 537 37,000  Level FlightAware ADS-B
Thu 04:18:33 PM 42.8403 -110.4417 70° East 470 541 37,000  Level Salt Lake Center
Thu 04:19:35 PM 42.8978 -110.2564 67° East 474 545 37,000  Level Salt Lake Center
Thu 04:20:37 PM 42.9522 -110.0814 67° East 469 540 37,000  Level Salt Lake Center
Thu 04:21:39 PM 42.9989 -109.9272 67° East 464 534 37,000  Level Salt Lake Center
Thu 04:22:41 PM 43.0458 -109.7611 69° East 464 534 37,000  Level Salt Lake Center
Thu 04:23:43 PM 43.0583 -109.5861 84° East 463 533 37,000  Level Salt Lake Center
Thu 04:24:45 PM 43.0764 -109.4142 82° East 461 531 37,000  Level Salt Lake Center
Thu 04:25:47 PM 43.1014 -109.2047 81° East 466 536 37,000  Level Salt Lake Center
Thu 04:26:49 PM 43.1175 -109.0278 83° East 469 540 37,000  Level Salt Lake Center
Thu 04:27:51 PM 43.1342 -108.8500 83° East 473 544 37,000  Level Salt Lake Center
Thu 04:28:53 PM 43.1514 -108.6711 82° East 474 545 37,000 290 Level Salt Lake Center
Thu 04:29:55 PM 43.1694 -108.4894 82° East 480 552 37,600 871 Climbing Salt Lake Center
Thu 04:30:57 PM 43.1897 -108.2719 83° East 481 554 38,800 672 Climbing Salt Lake Center
Thu 04:32:00 PM 43.2078 -108.0942 82° East 476 548 39,000 96 Climbing Salt Lake Center
Thu 04:33:02 PM 43.2267 -107.9158 82° East 475 547 39,000  Level Salt Lake Center
Thu 04:34:04 PM 43.2461 -107.7342 82° East 481 554 39,000  Level Salt Lake Center
Thu 04:35:06 PM 43.2628 -107.5500 83° East 487 560 39,000  Level Salt Lake Center
Thu 04:36:08 PM 43.2772 -107.3647 84° East 490 564 39,000  Level Salt Lake Center
Thu 04:37:10 PM 43.2956 -107.1439 83° East 490 564 39,000  Level Salt Lake Center
Thu 04:38:12 PM 43.3097 -106.9606 84° East 487 560 39,000  Level Salt Lake Center
Thu 04:39:14 PM 43.3283 -106.7642 83° East 487 560 39,000  Level Salt Lake Center
Thu 04:40:23 PM 43.3569 -106.5547 79° East 491 565 39,000  Level Denver Center
Thu 04:41:25 PM 43.3775 -106.3769 81° East 492 566 39,000  Level Denver Center
Thu 04:42:27 PM 43.3897 -106.1650 85° East 498 573 39,000  Level Denver Center
Thu 04:43:29 PM 43.4036 -105.9825 84° East 501 577 39,000  Level Denver Center
Thu 04:44:31 PM 43.4219 -105.7683 83° East 503 579 39,000  Level Denver Center
Thu 04:45:33 PM 43.4378 -105.5856 83° East 502 578 39,000  Level Denver Center
Thu 04:46:35 PM 43.4558 -105.3714 83° East 503 579 39,000  Level Denver Center
Thu 04:47:37 PM 43.4728 -105.1858 83° East 507 583 39,000  Level Denver Center
Thu 04:48:39 PM 43.4925 -104.9694 83° East 508 585 39,000  Level Denver Center
Thu 04:49:42 PM 43.5097 -104.7861 83° East 505 581 39,000  Level Denver Center
Thu 04:50:44 PM 43.5283 -104.6006 82° East 508 585 39,000  Level Denver Center
Thu 04:51:46 PM 43.5433 -104.3864 84° East 503 579 39,000  Level Denver Center
Thu 04:52:48 PM 43.5492 -104.2022 87° East 501 577 39,000  Level Denver Center
Thu 04:53:50 PM 43.5578 -103.9864 87° East 504 580 39,000  Level Denver Center
Thu 04:54:52 PM 43.5642 -103.8006 87° East 506 582 39,000  Level Denver Center
Thu 04:55:54 PM 43.5775 -103.5842 85° East 507 583 39,000  Level Denver Center
Thu 04:56:56 PM 43.6031 -103.3997 79° East 510 587 39,000  Level Denver Center
Thu 04:57:58 PM 43.6475 -103.1875 74° East 518 596 39,000  Level Denver Center
Thu 04:59:00 PM 43.6836 -103.0042 75° East 517 595 39,000  Level Denver Center
Thu 05:00:02 PM 43.7256 -102.7889 75° East 518 596 39,000  Level Denver Center
Thu 05:01:04 PM 43.7631 -102.6061 74° East 518 596 39,000  Level Denver Center
Thu 05:02:07 PM 43.8011 -102.4247 74° East 516 594 39,000  Level Denver Center
Thu 05:03:09 PM 43.8447 -102.2097 74° East 519 597 39,000  Level Denver Center
Thu 05:04:11 PM 43.8792 -102.0128 76° East 524 603 39,000  Level Denver Center
Thu 05:05:13 PM 43.9153 -101.8153 76° East 528 608 39,000  Level Denver Center
Thu 05:06:15 PM 43.9583 -101.6267 72° East 519 597 39,000  Level Denver Center
Thu 05:07:17 PM 44.0019 -101.3911 75° East 525 604 39,000  Level Denver Center
Thu 05:08:15 PM 44.0303 -101.2369 76° East 523 602 39,000  Level Minneapolis Center
Thu 05:09:17 PM 44.0744 -101.0031 75° East 523 602 39,000  Level Minneapolis Center
Thu 05:10:19 PM 44.1100 -100.8094 76° East 521 600 39,000  Level Minneapolis Center
Thu 05:11:21 PM 44.1461 -100.6122 76° East 525 604 39,000  Level Minneapolis Center
Thu 05:12:23 PM 44.1833 -100.4136 75° East 530 610 39,000  Level Minneapolis Center
Thu 05:13:26 PM 44.2189 -100.2150 76° East 531 611 39,000  Level Minneapolis Center
Thu 05:14:28 PM 44.2542 -100.0167 76° East 531 611 39,000  Level Minneapolis Center
Thu 05:15:30 PM 44.2961 -99.7775 76° East 533 613 39,000  Level Minneapolis Center
Thu 05:16:32 PM 44.3308 -99.5767 76° East 534 615 39,000  Level Minneapolis Center
Thu 05:22:23 PM 44.5340 -98.3680 76° East 544 626 39,000  Level FlightAware ADS-B
Thu 05:22:59 PM 44.5530 -98.2490 77° East 545 627 39,000  Level FlightAware ADS-B
Thu 05:23:35 PM 44.5730 -98.1190 78° East 546 628 39,000  Level FlightAware ADS-B
Thu 05:24:12 PM 44.5900 -98.0150 77° East 546 628 39,000  Level FlightAware ADS-B
Thu 05:24:57 PM 44.6030 -97.8330 84° East 544 626 39,000  Level FlightAware ADS-B
Thu 05:25:32 PM 44.6100 -97.7160 85° East 546 628 39,000  Level FlightAware ADS-B
Thu 05:26:09 PM 44.6170 -97.5810 86° East 548 631 39,000  Level FlightAware ADS-B
Thu 05:26:40 PM 44.6220 -97.4710 86° East 550 633 39,000  Level FlightAware ADS-B
Thu 05:27:13 PM 44.6280 -97.3490 86° East 551 634 39,000  Level FlightAware ADS-B
Thu 05:27:53 PM 44.6350 -97.2130 86° East 549 632 39,000  Level FlightAware ADS-B
Thu 05:28:29 PM 44.6410 -97.0840 86° East 549 632 39,000  Level FlightAware ADS-B
Thu 05:29:05 PM 44.6470 -96.9550 86° East 551 634 39,000  Level FlightAware ADS-B
Thu 05:29:37 PM 44.6520 -96.8410 86° East 551 634 39,000  Level FlightAware ADS-B
Thu 05:30:13 PM 44.6580 -96.7140 86° East 552 635 39,000  Level FlightAware ADS-B
Thu 05:30:45 PM 44.6630 -96.5980 86° East 551 634 39,000  Level FlightAware ADS-B
Thu 05:31:21 PM 44.6690 -96.4690 86° East 550 633 39,000  Level FlightAware ADS-B
Thu 05:31:57 PM 44.6740 -96.3470 87° East 549 632 39,000  Level FlightAware ADS-B
Thu 05:32:33 PM 44.6790 -96.2140 87° East 549 632 39,000  Level FlightAware ADS-B
Thu 05:33:09 PM 44.6840 -96.0850 87° East 550 633 39,000  Level FlightAware ADS-B
Thu 05:33:41 PM 44.6880 -95.9700 87° East 551 634 39,000  Level FlightAware ADS-B
Thu 05:34:15 PM 44.6930 -95.8470 87° East 552 635 39,000  Level FlightAware ADS-B
Thu 05:34:54 PM 44.6970 -95.7100 88° East 552 635 39,000  Level FlightAware ADS-B
Thu 05:35:29 PM 44.7010 -95.5900 87° East 552 635 39,000  Level FlightAware ADS-B
Thu 05:36:02 PM 44.7060 -95.4660 87° East 552 635 39,000  Level FlightAware ADS-B
Thu 05:36:38 PM 44.7100 -95.3350 87° East 552 635 39,000  Level FlightAware ADS-B
Thu 05:37:14 PM 44.7140 -95.2110 87° East 553 636 39,000  Level FlightAware ADS-B
Thu 05:37:47 PM 44.7170 -95.0910 88° East 553 636 39,000  Level FlightAware ADS-B
Thu 05:38:22 PM 44.7210 -94.9650 87° East 553 636 39,000  Level FlightAware ADS-B
Thu 05:38:54 PM 44.7240 -94.8530 88° East 553 636 39,000  Level FlightAware ADS-B
Thu 05:39:32 PM 44.7280 -94.7150 88° East 554 638 39,000  Level FlightAware ADS-B
Thu 05:40:08 PM 44.7310 -94.5840 88° East 554 638 39,000  Level FlightAware ADS-B
Thu 05:40:44 PM 44.7350 -94.4560 87° East 553 636 39,000  Level FlightAware ADS-B
Thu 05:41:15 PM 44.7370 -94.3460 88° East 552 635 39,000  Level FlightAware ADS-B
Thu 05:41:52 PM 44.7400 -94.2120 88° East 551 634 39,000  Level FlightAware ADS-B
Thu 05:42:28 PM 44.7430 -94.0840 88° East 552 635 39,000  Level FlightAware ADS-B
Thu 05:43:04 PM 44.7450 -93.9530 89° East 553 636 39,000  Level FlightAware ADS-B
Thu 05:43:40 PM 44.7480 -93.8240 88° East 555 639 39,000  Level FlightAware ADS-B
Thu 05:44:12 PM 44.7500 -93.7170 88° East 556 640 39,000  Level FlightAware ADS-B
Thu 05:44:50 PM 44.7520 -93.5740 89° East 557 641 39,000  Level FlightAware ADS-B
Thu 05:45:20 PM 44.7540 -93.4660 88° East 558 642 39,000  Level FlightAware ADS-B
Thu 05:45:57 PM 44.7560 -93.3330 89° East 558 642 39,000  Level FlightAware ADS-B
Thu 05:46:31 PM 44.7560 -93.2110 90° East 557 641 39,000  Level FlightAware ADS-B
Thu 05:47:08 PM 44.7540 -93.0770 91° East 557 641 39,000  Level FlightAware ADS-B
Thu 05:47:40 PM 44.7510 -92.9640 92° East 559 643 39,000  Level FlightAware ADS-B
Thu 05:48:16 PM 44.7470 -92.8290 92° East 562 647 39,000  Level FlightAware ADS-B
Thu 05:48:52 PM 44.7430 -92.7030 93° East 562 647 39,000  Level FlightAware ADS-B
Thu 05:49:28 PM 44.7380 -92.5700 93° East 562 647 39,000  Level FlightAware ADS-B
Thu 05:50:02 PM 44.7340 -92.4410 92° East 562 647 39,000  Level FlightAware ADS-B
Thu 05:50:36 PM 44.7300 -92.3180 93° East 561 646 39,000  Level FlightAware ADS-B
Thu 05:51:13 PM 44.7250 -92.1850 93° East 561 646 39,000  Level FlightAware ADS-B
Thu 05:51:48 PM 44.7200 -92.0560 93° East 560 644 39,000  Level FlightAware ADS-B
Thu 05:52:25 PM 44.7150 -91.9290 93° East 560 644 39,000  Level FlightAware ADS-B
Thu 05:52:56 PM 44.7100 -91.8080 93° East 562 647 39,000  Level FlightAware ADS-B
Thu 05:53:32 PM 44.7050 -91.6780 93° East 565 650 39,000  Level FlightAware ADS-B
Thu 05:54:08 PM 44.7000 -91.5460 93° East 566 651 39,000  Level FlightAware ADS-B
Thu 05:54:44 PM 44.6940 -91.4140 94° East 565 650 39,000  Level FlightAware ADS-B
Thu 05:55:18 PM 44.6890 -91.2890 93° East 563 648 39,000  Level FlightAware ADS-B
Thu 05:55:54 PM 44.6830 -91.1620 94° East 561 646 39,000  Level FlightAware ADS-B
Thu 05:56:30 PM 44.6770 -91.0390 94° East 561 646 39,000  Level FlightAware ADS-B
Thu 05:57:02 PM 44.6710 -90.9120 94° East 562 647 39,000  Level FlightAware ADS-B
Thu 05:57:40 PM 44.6650 -90.7780 94° East 562 647 39,000  Level FlightAware ADS-B
Thu 05:58:16 PM 44.6580 -90.6470 94° East 561 646 39,000  Level FlightAware ADS-B
Thu 05:58:44 PM 44.6530 -90.5440 94° East 561 646 39,000  Level FlightAware ADS-B
Thu 05:59:24 PM 44.6460 -90.3990 94° East 562 647 39,000  Level FlightAware ADS-B
Thu 05:59:58 PM 44.6390 -90.2740 94° East 562 647 39,000  Level FlightAware ADS-B
Thu 06:00:34 PM 44.6320 -90.1460 94° East 563 648 39,000  Level FlightAware ADS-B
Thu 06:01:10 PM 44.6250 -90.0190 94° East 563 648 39,000  Level FlightAware ADS-B
Thu 06:01:51 PM 44.6180 -89.8750 94° East 563 648 39,000  Level FlightAware ADS-B
Thu 06:02:25 PM 44.6090 -89.7390 95° East 564 649 39,000  Level FlightAware ADS-B
Thu 06:02:55 PM 44.6030 -89.6300 94° East 564 649 39,000  Level FlightAware ADS-B
Thu 06:03:35 PM 44.5940 -89.4840 95° East 564 649 39,000  Level FlightAware ADS-B
Thu 06:04:06 PM 44.5880 -89.3770 94° East 565 650 39,000  Level FlightAware ADS-B
Thu 06:04:41 PM 44.5800 -89.2530 95° East 566 651 39,000  Level FlightAware ADS-B
Thu 06:05:19 PM 44.5720 -89.1150 95° East 567 652 39,000  Level FlightAware ADS-B
Thu 06:05:55 PM 44.5630 -88.9730 95° East 566 651 39,000  Level FlightAware ADS-B
Thu 06:06:30 PM 44.5540 -88.8480 96° East 565 650 39,000  Level FlightAware ADS-B
Thu 06:07:04 PM 44.5460 -88.7250 95° East 563 648 39,000  Level FlightAware ADS-B
Thu 06:07:39 PM 44.5380 -88.6040 95° East 564 649 39,000  Level FlightAware ADS-B
Thu 06:08:15 PM 44.5280 -88.4660 96° East 565 650 39,000  Level FlightAware ADS-B
Thu 06:08:56 PM 44.5180 -88.3200 95° East 566 651 39,000  Level FlightAware ADS-B
Thu 06:09:38 PM 44.5070 -88.1690 96° East 567 652 39,000  Level FlightAware ADS-B
Thu 06:10:08 PM 44.5000 -88.0690 96° East 568 654 39,000  Level FlightAware ADS-B
Thu 06:10:58 PM 44.4860 -87.8740 96° East 568 654 39,000  Level FlightAware ADS-B
Thu 06:11:52 PM 44.4720 -87.6940 96° East 566 651 39,000  Level FlightAware ADS-B
Thu 06:12:30 PM 44.4630 -87.5650 96° East 567 652 39,000  Level FlightAware ADS-B
Thu 06:13:05 PM 44.4510 -87.4140 96° East 568 654 39,000  Level FlightAware ADS-B
Thu 06:13:37 PM 44.4410 -87.2980 97° East 568 654 39,000  Level FlightAware ADS-B
Thu 06:14:15 PM 44.4310 -87.1630 96° East 568 654 39,000  Level FlightAware ADS-B
Thu 06:14:50 PM 44.4200 -87.0320 97° East 567 652 39,000  Level FlightAware ADS-B
Thu 06:15:32 PM 44.4100 -86.9030 96° East 567 652 39,000  Level FlightAware ADS-B
Thu 06:16:00 PM 44.3980 -86.7750 97° East 567 652 39,000  Level FlightAware ADS-B
Thu 06:16:43 PM 44.3850 -86.6210 97° East 566 651 39,000  Level FlightAware ADS-B
Thu 06:17:12 PM 44.3760 -86.5110 96° East 567 652 39,000  Level FlightAware ADS-B
Thu 06:17:50 PM 44.3640 -86.3740 97° East 566 651 39,000  Level FlightAware ADS-B
Thu 06:18:26 PM 44.3520 -86.2430 97° East 565 650 39,000  Level FlightAware ADS-B
Thu 06:18:59 PM 44.3410 -86.1240 97° East 565 650 39,000  Level FlightAware ADS-B
Thu 06:19:35 PM 44.3300 -85.9930 97° East 565 650 39,000  Level FlightAware ADS-B
Thu 06:20:12 PM 44.3180 -85.8690 98° East 564 649 39,000  Level FlightAware ADS-B
Thu 06:20:47 PM 44.3060 -85.7340 97° East 563 648 39,000  Level FlightAware ADS-B
Thu 06:21:20 PM 44.2950 -85.6180 98° East 564 649 39,000  Level FlightAware ADS-B
Thu 06:21:56 PM 44.2820 -85.4890 98° East 564 649 39,000  Level FlightAware ADS-B
Thu 06:22:32 PM 44.2700 -85.3570 97° East 565 650 39,000  Level FlightAware ADS-B
Thu 06:23:04 PM 44.2580 -85.2420 98° East 564 649 39,000  Level FlightAware ADS-B
Thu 06:23:39 PM 44.2460 -85.1150 97° East 565 650 39,000  Level FlightAware ADS-B
Thu 06:24:11 PM 44.2340 -85.0010 98° East 565 650 39,000  Level FlightAware ADS-B
Thu 06:24:51 PM 44.2200 -84.8560 98° East 565 650 39,000  Level FlightAware ADS-B
Thu 06:25:26 PM 44.2070 -84.7310 98° East 562 647 39,000  Level FlightAware ADS-B
Thu 06:25:57 PM 44.1950 -84.6200 99° East 559 643 39,000  Level FlightAware ADS-B
Thu 06:26:34 PM 44.1820 -84.4900 98° East 559 643 39,000  Level FlightAware ADS-B
Thu 06:27:12 PM 44.1730 -84.3540 95° East 562 647 39,000  Level FlightAware ADS-B
Thu 06:27:48 PM 44.1760 -84.2240 88° East 559 643 39,000  Level FlightAware ADS-B
Thu 06:28:20 PM 44.1810 -84.1110 86° East 558 642 39,000  Level FlightAware ADS-B
Thu 06:28:56 PM 44.1870 -83.9800 86° East 560 644 39,000  Level FlightAware ADS-B
Thu 06:29:32 PM 44.1920 -83.8530 87° East 563 648 39,000  Level FlightAware ADS-B
Thu 06:30:08 PM 44.1980 -83.7200 86° East 562 647 39,000  Level FlightAware ADS-B
Thu 06:30:40 PM 44.2030 -83.6070 86° East 561 646 39,000  Level FlightAware ADS-B
Thu 06:31:14 PM 44.2080 -83.4820 87° East 561 646 39,000  Level FlightAware ADS-B
Thu 06:31:51 PM 44.2130 -83.3480 87° East 561 646 39,000  Level FlightAware ADS-B
Thu 06:32:24 PM 44.2170 -83.2350 87° East 561 646 39,000  Level FlightAware ADS-B
Thu 06:33:00 PM 44.2220 -83.1010 87° East 562 647 39,000  Level FlightAware ADS-B
Thu 06:33:36 PM 44.2270 -82.9700 87° East 563 648 39,000  Level FlightAware ADS-B
Thu 06:34:09 PM 44.2310 -82.8520 87° East 562 647 39,000  Level FlightAware ADS-B
Thu 06:34:45 PM 44.2350 -82.7230 87° East 560 644 39,000  Level FlightAware ADS-B
Thu 06:35:16 PM 44.2380 -82.6110 88° East 559 643 39,000  Level FlightAware ADS-B
Thu 06:36:01 PM 44.2430 -82.4680 87° East 560 644 39,000  Level FlightAware ADS-B
Thu 06:36:41 PM 44.2460 -82.3350 88° East 562 647 39,000  Level FlightAware ADS-B
Thu 06:37:19 PM 44.2320 -82.1780 97° East 564 649 39,000  Level FlightAware ADS-B
Thu 06:37:54 PM 44.2070 -82.0550 106° East 564 649 39,000  Level FlightAware ADS-B
Thu 06:38:29 PM 44.1810 -81.9350 107° East 564 649 39,000  Level FlightAware ADS-B
Thu 06:39:04 PM 44.1540 -81.8120 107° East 564 649 39,000  Level FlightAware ADS-B
Thu 06:39:39 PM 44.1280 -81.6920 107° East 561 646 39,000  Level FlightAware ADS-B
Thu 06:40:19 PM 44.0980 -81.5530 107° East 560 644 39,000  Level FlightAware ADS-B
Thu 06:40:54 PM 44.0710 -81.4340 107° East 560 644 39,000  Level FlightAware ADS-B
Thu 06:41:34 PM 44.0410 -81.2950 107° East 559 643 39,000  Level FlightAware ADS-B
Thu 06:42:04 PM 44.0180 -81.1950 108° East 559 643 39,000  Level FlightAware ADS-B
Thu 06:42:39 PM 43.9910 -81.0730 107° East 558 642 39,000  Level FlightAware ADS-B
Thu 06:43:14 PM 43.9640 -80.9520 107° East 559 643 39,000  Level FlightAware ADS-B
Thu 06:43:49 PM 43.9380 -80.8340 107° East 558 642 39,000  Level FlightAware ADS-B
Thu 06:44:25 PM 43.9110 -80.7170 108° East 558 642 39,000  Level FlightAware ADS-B
Thu 06:45:04 PM 43.8800 -80.5790 107° East 560 644 39,000  Level FlightAware ADS-B
Thu 06:45:35 PM 43.8540 -80.4660 108° East 560 644 39,000  Level FlightAware ADS-B
Thu 06:46:12 PM 43.8260 -80.3470 108° East 560 644 39,000  Level FlightAware ADS-B
Thu 06:46:48 PM 43.7960 -80.2170 108° East 558 642 39,000  Level FlightAware ADS-B
Thu 06:47:22 PM 43.7690 -80.1010 108° East 556 640 39,000  Level FlightAware ADS-B
Thu 06:47:58 PM 43.7420 -79.9830 108° East 558 642 39,000  Level FlightAware ADS-B
Thu 06:48:34 PM 43.7120 -79.8570 108° East 558 642 39,000  Level FlightAware ADS-B
Thu 06:49:06 PM 43.6860 -79.7490 108° East 559 643 39,000  Level FlightAware ADS-B
Thu 06:49:42 PM 43.6650 -79.6280 103° East 559 643 39,000  Level FlightAware ADS-B
Thu 06:50:26 PM 43.6640 -79.4770 90° East 553 636 39,000  Level FlightAware ADS-B
Thu 06:50:58 PM 43.6680 -79.3610 87° East 555 639 39,000  Level FlightAware ADS-B
Thu 06:51:34 PM 43.6730 -79.2320 87° East 555 639 39,000  Level FlightAware ADS-B
Thu 06:52:08 PM 43.6770 -79.1080 87° East 556 640 39,000  Level FlightAware ADS-B
Thu 06:52:46 PM 43.6810 -78.9780 88° East 552 635 39,000  Level FlightAware ADS-B
Thu 06:53:17 PM 43.6850 -78.8680 87° East 551 634 39,000  Level FlightAware ADS-B
Thu 06:53:54 PM 43.6890 -78.7360 88° East 550 633 39,000  Level FlightAware ADS-B
Thu 06:54:30 PM 43.6920 -78.6100 88° East 551 634 39,000  Level FlightAware ADS-B
Thu 06:55:04 PM 43.6960 -78.4940 87° East 552 635 39,000  Level FlightAware ADS-B
Thu 06:55:40 PM 43.6990 -78.3640 88° East 552 635 39,000  Level FlightAware ADS-B
Thu 06:56:16 PM 43.7030 -78.2390 87° East 551 634 39,000  Level FlightAware ADS-B
Thu 06:56:48 PM 43.7050 -78.1360 88° East 551 634 39,000  Level FlightAware ADS-B
Thu 06:57:24 PM 43.7090 -78.0010 88° East 551 634 39,000  Level FlightAware ADS-B
Thu 06:58:00 PM 43.7110 -77.8840 89° East 551 634 39,000  Level FlightAware ADS-B
Thu 06:58:40 PM 43.7140 -77.7380 88° East 553 636 39,000  Level FlightAware ADS-B
Thu 06:59:25 PM 43.7180 -77.5760 88° East 553 636 39,000  Level FlightAware ADS-B
Thu 06:59:56 PM 43.7200 -77.4650 89° East 552 635 39,000  Level FlightAware ADS-B
Thu 07:00:34 PM 43.7220 -77.3320 89° East 553 636 39,000  Level FlightAware ADS-B
Thu 07:01:08 PM 43.7240 -77.2110 89° East 555 639 39,000  Level FlightAware ADS-B
Thu 07:01:44 PM 43.7270 -77.0830 88° East 557 641 39,000  Level FlightAware ADS-B
Thu 07:02:17 PM 43.7280 -76.9700 89° East 556 640 39,000  Level FlightAware ADS-B
Thu 07:02:54 PM 43.7300 -76.8360 89° East 555 639 39,000  Level FlightAware ADS-B
Thu 07:03:30 PM 43.7320 -76.7060 89° East 556 640 39,000  Level FlightAware ADS-B
Thu 07:04:02 PM 43.7300 -76.5940 91° East 557 641 39,000  Level FlightAware ADS-B
Thu 07:04:38 PM 43.7260 -76.4680 92° East 556 640 39,000  Level FlightAware ADS-B
Thu 07:05:14 PM 43.7220 -76.3400 92° East 554 638 39,000  Level FlightAware ADS-B
Thu 07:05:46 PM 43.7190 -76.2260 92° East 554 638 39,000  Level FlightAware ADS-B
Thu 07:06:24 PM 43.7150 -76.0930 92° East 554 638 39,000  Level FlightAware ADS-B
Thu 07:06:56 PM 43.7120 -75.9810 92° East 553 636 39,000  Level FlightAware ADS-B
Thu 07:07:32 PM 43.7080 -75.8550 92° East 552 635 39,000  Level FlightAware ADS-B
Thu 07:08:10 PM 43.7040 -75.7240 92° East 552 635 39,000  Level FlightAware ADS-B
Thu 07:08:42 PM 43.7000 -75.6050 93° East 554 638 39,000  Level FlightAware ADS-B
Thu 07:09:18 PM 43.6960 -75.4800 92° East 555 639 39,000  Level FlightAware ADS-B
Thu 07:09:54 PM 43.6920 -75.3530 92° East 555 639 39,000  Level FlightAware ADS-B
Thu 07:10:30 PM 43.6870 -75.2260 93° East 553 636 39,000  Level FlightAware ADS-B
Thu 07:11:02 PM 43.6830 -75.1130 93° East 553 636 39,000  Level FlightAware ADS-B
Thu 07:11:36 PM 43.6790 -74.9950 93° East 554 638 39,000  Level FlightAware ADS-B
Thu 07:12:13 PM 43.6740 -74.8650 93° East 554 638 39,000  Level FlightAware ADS-B
Thu 07:12:50 PM 43.6680 -74.7320 94° East 553 636 39,000  Level FlightAware ADS-B
Thu 07:13:26 PM 43.6630 -74.6050 93° East 552 635 39,000  Level FlightAware ADS-B
Thu 07:13:56 PM 43.6590 -74.5000 93° East 551 634 39,000  Level FlightAware ADS-B
Thu 07:14:34 PM 43.6530 -74.3670 94° East 550 633 39,000  Level FlightAware ADS-B
Thu 07:15:14 PM 43.6470 -74.2270 93° East 552 635 39,000  Level FlightAware ADS-B
Thu 07:15:52 PM 43.6400 -74.0950 94° East 554 638 39,000  Level FlightAware ADS-B
Thu 07:16:28 PM 43.6340 -73.9670 94° East 553 636 39,000  Level FlightAware ADS-B
Thu 07:17:00 PM 43.6290 -73.8550 93° East 552 635 39,000  Level FlightAware ADS-B
Thu 07:17:32 PM 43.6240 -73.7480 94° East 550 633 39,000  Level FlightAware ADS-B
Thu 07:18:08 PM 43.6170 -73.6160 94° East 547 629 39,000  Level FlightAware ADS-B
Thu 07:18:46 PM 43.6110 -73.4940 94° East 545 627 39,000  Level FlightAware ADS-B
Thu 07:19:20 PM 43.6050 -73.3740 94° East 547 629 39,000  Level FlightAware ADS-B
Thu 07:19:55 PM 43.5980 -73.2490 94° East 546 628 39,000  Level FlightAware ADS-B
Thu 07:20:30 PM 43.5920 -73.1340 94° East 544 626 39,000  Level FlightAware ADS-B
Thu 07:21:10 PM 43.5840 -72.9900 94° East 542 624 39,000  Level FlightAware ADS-B
Thu 07:21:45 PM 43.5770 -72.8690 95° East 537 618 39,000  Level FlightAware ADS-B
Thu 07:22:21 PM 43.5700 -72.7530 95° East 533 613 39,000  Level FlightAware ADS-B
Thu 07:22:55 PM 43.5630 -72.6320 95° East 532 612 39,000  Level FlightAware ADS-B
Thu 07:23:30 PM 43.5560 -72.5140 95° East 536 617 39,000  Level FlightAware ADS-B
Thu 07:24:05 PM 43.5490 -72.3970 95° East 535 616 39,000  Level FlightAware ADS-B
Thu 07:24:41 PM 43.5420 -72.2750 94° East 536 617 39,000  Level FlightAware ADS-B
Thu 07:25:18 PM 43.5330 -72.1450 95° East 528 608 39,000  Level FlightAware ADS-B
Thu 07:25:54 PM 43.5260 -72.0250 95° East 524 603 39,000  Level FlightAware ADS-B
Thu 07:26:30 PM 43.5180 -71.9060 95° East 528 608 39,000  Level FlightAware ADS-B
Thu 07:27:02 PM 43.5110 -71.7990 95° East 530 610 39,000  Level FlightAware ADS-B
Thu 07:27:38 PM 43.5030 -71.6780 95° East 532 612 39,000  Level FlightAware ADS-B
Thu 07:28:14 PM 43.4950 -71.5580 95° East 530 610 39,000  Level FlightAware ADS-B
Thu 07:28:48 PM 43.4870 -71.4440 95° East 532 612 39,000  Level FlightAware ADS-B
Thu 07:29:25 PM 43.4780 -71.3230 96° East 533 613 39,000  Level FlightAware ADS-B
Thu 07:29:58 PM 43.4700 -71.2080 95° East 527 606 39,000  Level FlightAware ADS-B
Thu 07:30:34 PM 43.4610 -71.0880 96° East 524 603 39,000  Level FlightAware ADS-B
Thu 07:31:06 PM 43.4400 -70.9860 106° East 531 611 39,000  Level FlightAware ADS-B
Thu 07:31:28 PM 43.4110 -70.9230 122° Southeast 533 613 39,000  Level FlightAware ADS-B
Thu 07:31:57 PM 43.3580 -70.8630 141° Southeast 527 606 39,000  Level FlightAware ADS-B
Thu 07:32:24 PM 43.2960 -70.8310 159° South 510 587 39,000  Level FlightAware ADS-B
Thu 07:33:08 PM 43.1970 -70.8360 182° South 477 549 39,000 -395 Level FlightAware ADS-B
Thu 07:33:40 PM 43.1290 -70.8640 197° South 474 545 38,500 -882 Descending FlightAware ADS-B
Thu 07:34:16 PM 43.0530 -70.8960 197° South 470 541 38,000 -405 Descending FlightAware ADS-B
Thu 07:34:54 PM 42.9760 -70.9280 197° South 469 540 38,000  Level FlightAware ADS-B
Thu 07:35:24 PM 42.9140 -70.9540 197° South 471 542 38,000  Level FlightAware ADS-B
Thu 07:36:02 PM 42.8330 -70.9860 196° South 478 550 38,000  Level FlightAware ADS-B
Thu 07:36:38 PM 42.7580 -71.0170 197° South 479 551 38,000  Level FlightAware ADS-B
Thu 07:37:14 PM 42.6810 -71.0480 196° South 480 552 38,000  Level FlightAware ADS-B
Thu 07:37:46 PM 42.6140 -71.0750 197° South 480 552 38,000  Level FlightAware ADS-B
Thu 07:38:21 PM 42.5390 -71.1050 196° South 479 551 38,000  Level FlightAware ADS-B
Thu 07:38:58 PM 42.4640 -71.1360 197° South 480 552 38,000  Level FlightAware ADS-B
Thu 07:39:31 PM 42.3880 -71.1660 196° South 480 552 38,000  Level FlightAware ADS-B
Thu 07:40:07 PM 42.3140 -71.1960 197° South 481 554 38,000  Level FlightAware ADS-B
Thu 07:40:43 PM 42.2350 -71.2270 196° South 482 555 38,000  Level FlightAware ADS-B
Thu 07:41:19 PM 42.1610 -71.2570 197° South 481 554 38,000  Level FlightAware ADS-B
Thu 07:41:49 PM 42.0940 -71.2830 196° South 483 556 38,000  Level FlightAware ADS-B
Thu 07:42:24 PM 42.0240 -71.3110 197° South 487 560 38,000  Level FlightAware ADS-B
Thu 07:43:00 PM 41.9470 -71.3420 197° South 489 563 38,000  Level FlightAware ADS-B
Thu 07:43:34 PM 41.8710 -71.3710 196° South 491 565 38,000 -423 Level FlightAware ADS-B
Thu 07:44:11 PM 41.7890 -71.4040 197° South 487 560 37,500 -833 Descending FlightAware ADS-B
Thu 07:44:46 PM 41.7170 -71.4440 203° Southwest 460 529 37,000 -1,629 Descending FlightAware ADS-B
Thu 07:45:21 PM 41.6600 -71.5000 216° Southwest 439 505 35,600 -2,400 Descending FlightAware ADS-B
Thu 07:45:51 PM 41.6110 -71.5540 219° Southwest 445 512 34,400 -2,027 Descending FlightAware ADS-B
Thu 07:46:35 PM 41.5460 -71.6280 220° Southwest 448 516 33,100 -1,448 Descending FlightAware ADS-B
Thu 07:47:18 PM 41.4810 -71.7020 220° Southwest 443 510 32,300 -3,150 Descending FlightAware ADS-B
Thu 07:47:55 PM 41.4380 -71.7490 219° Southwest 449 517 28,900 -3,225 Descending FlightAware ADS-B
Thu 07:48:38 PM 41.3580 -71.8360 219° Southwest 449 517 28,000 -2,400 Descending FlightAware ADS-B
Thu 07:49:10 PM 41.3010 -71.8990 220° Southwest 444 511 25,900 -1,775 Descending FlightAware ADS-B
Thu 07:49:49 PM 41.2480 -71.9560 219° Southwest 444 511 25,900  Level FlightAware ADS-B
Thu 07:50:23 PM 41.2020 -72.0060 219° Southwest 444 511 25,900  Level FlightAware ADS-B
Thu 07:51:01 PM 41.1500 -72.0610 219° Southwest 444 511 25,900  Level FlightAware ADS-B
Thu 07:51:37 PM 41.1010 -72.1130 219° Southwest 444 511 25,900 -1,102 Level FlightAware ADS-B
Thu 07:51:40 PM 41.3040 -72.0670 10° North 25,000 -4,154 Descending FlightAware ADS-B
Thu 07:51:50 PM 41.3820 -72.0410 14° North 337 388 25,000  Level FlightAware ADS-B
Thu 07:52:30 PM 41.4390 -71.9860 36° Northeast 343 395 25,000  Level FlightAware ADS-B
Thu 07:53:10 PM 41.4870 -71.9360 38° Northeast 342 394 25,000  Level FlightAware ADS-B
Thu 07:53:40 PM 41.5200 -71.8800 52° Northeast 356 410 25,000  Level FlightAware ADS-B
Thu 07:53:55 PM 41.5230 -71.8540 81° East 363 418 25,000  Level FlightAware ADS-B
Thu 07:54:20 PM 41.5090 -71.7950 108° East 370 426 25,000 -120 Level FlightAware ADS-B
Thu 07:54:45 PM 41.4820 -71.7580 134° Southeast 382 440 24,900 -97 Descending FlightAware ADS-B
Thu 07:55:22 PM 41.4380 -71.7130 143° Southeast 382 440 24,900  Level FlightAware ADS-B
Thu 07:56:10 PM 41.3810 -71.6530 142° Southeast 382 440 24,900  Level FlightAware ADS-B
Thu 07:56:47 PM 41.3380 -71.6080 142° Southeast 382 440 24,900  Level FlightAware ADS-B
Thu 07:57:23 PM 41.2950 -71.5640 142° Southeast 382 440 24,900  Level FlightAware ADS-B
Thu 07:58:00 PM 41.2510 -71.5180 142° Southeast 382 440 24,900  Level FlightAware ADS-B
Thu 07:58:36 PM 41.2090 -71.4740 142° Southeast 382 440 24,900 -1,665 Level FlightAware ADS-B
Thu 08:03:28 PM 40.9970 -72.5300 255° West 310 357 15,800 -1,833 Descending FlightAware ADS-B
Thu 08:04:00 PM 40.9830 -72.5870 252° West 306 352 15,000 -986 Descending FlightAware ADS-B
Thu 08:04:41 PM 40.9680 -72.6490 252° West 305 351 14,600 -1,013 Descending FlightAware ADS-B
Thu 08:05:17 PM 40.9510 -72.7160 251° West 302 348 13,700 -2,156 Descending FlightAware ADS-B
Thu 08:05:45 PM 40.9370 -72.7710 251° West 296 341 12,300 -2,348 Descending FlightAware ADS-B
Thu 08:06:03 PM 40.9240 -72.7990 238° Southwest 294 338 11,900 -462 Descending FlightAware ADS-B
Thu 08:06:37 PM 40.8920 -72.8440 227° Southwest 295 339 11,900  Level FlightAware ADS-B
Thu 08:07:12 PM 40.8570 -72.8910 225° Southwest 295 339 11,900 -692 Level FlightAware ADS-B
Thu 08:07:55 PM 40.8190 -72.9430 226° Southwest 292 336 11,000 -1,385 Descending FlightAware ADS-B
Thu 08:08:30 PM 40.7850 -72.9900 226° Southwest 287 330 10,100 -1,472 Descending FlightAware ADS-B
Thu 08:08:48 PM 40.7690 -73.0120 226° Southwest 286 329 9,700 -1,429 Descending FlightAware ADS-B
Thu 08:09:12 PM 40.7460 -73.0430 226° Southwest 284 327 9,100 -1,571 Descending FlightAware ADS-B
Thu 08:09:30 PM 40.7300 -73.0660 227° Southwest 284 327 8,600 -1,286 Descending FlightAware ADS-B
Thu 08:09:54 PM 40.7090 -73.0950 226° Southwest 277 319 8,200 -1,000 Descending FlightAware ADS-B
Thu 08:10:18 PM 40.6860 -73.1270 227° Southwest 270 311 7,800 -1,050 Descending FlightAware ADS-B
Thu 08:10:34 PM 40.6740 -73.1440 227° Southwest 267 307 7,500 -1,400 Descending FlightAware ADS-B
Thu 08:10:48 PM 40.6606 -73.1630 227° Southwest 264 304 7,100 -1,294 Descending FlightAware ADS-B
Thu 08:11:25 PM 40.6450 -73.2100 246° West 264 304 6,400 -1,143 Descending FlightAware ADS-B
Thu 08:11:30 PM 40.6460 -73.2190 278° West 265 305 6,300 -1,500 Descending FlightAware ADS-B
Thu 08:11:41 PM 40.6520 -73.2360 295° West 268 308 6,000 -1,304 Descending FlightAware ADS-B
Thu 08:11:53 PM 40.6630 -73.2500 316° Northwest 272 313 5,800 -1,235 Descending FlightAware ADS-B
Thu 08:12:15 PM 40.6840 -73.2710 323° Northwest 275 316 5,300 -1,412 Descending FlightAware ADS-B
Thu 08:12:27 PM 40.6990 -73.2820 331° Northwest 276 318 5,000 -706 Descending FlightAware ADS-B
Thu 08:12:49 PM 40.7230 -73.2990 332° Northwest 263 303 4,900 -360 Descending FlightAware ADS-B
Thu 08:13:17 PM 40.7520 -73.3190 332° Northwest 245 282 4,700 -522 Descending FlightAware ADS-B
Thu 08:13:35 PM 40.7690 -73.3310 332° Northwest 238 274 4,500 -615 Descending FlightAware ADS-B
Thu 08:13:56 PM 40.7890 -73.3440 334° Northwest 230 265 4,300 -486 Descending FlightAware ADS-B
Thu 08:14:12 PM 40.8010 -73.3530 330° Northwest 226 260 4,200 -632 Descending FlightAware ADS-B
Thu 08:14:34 PM 40.8230 -73.3680 333° Northwest 216 249 3,900 -409 Descending FlightAware ADS-B
Thu 08:14:56 PM 40.8440 -73.3820 333° Northwest 215 247 3,900  Level FlightAware ADS-B
Thu 08:15:14 PM 40.8590 -73.3930 331° Northwest 208 239 3,900 -143 Level FlightAware ADS-B
Thu 08:15:38 PM 40.8780 -73.4050 334° Northwest 186 214 3,800 -343 Descending FlightAware ADS-B
Thu 08:15:49 PM 40.8870 -73.4130 326° Northwest 177 204 3,700 -571 Descending FlightAware ADS-B
Thu 08:15:59 PM 40.8900 -73.4210 296° West 166 191 3,600 -720 Descending FlightAware ADS-B
Thu 08:16:14 PM 40.8930 -73.4340 287° West 160 184 3,400 -923 Descending FlightAware ADS-B
Thu 08:16:51 PM 40.8940 -73.4680 272° West 154 177 2,800 -554 Descending FlightAware ADS-B
Thu 08:17:19 PM 40.8920 -73.4900 263° West 154 177 2,800 -716 Level FlightAware ADS-B
Thu 08:17:58 PM 40.8810 -73.5250 247° West 146 168 2,000 -738 Descending FlightAware ADS-B
Thu 08:18:24 PM 40.8740 -73.5420 241° Southwest 146 168 2,000 -54 Level FlightAware ADS-B
Thu 08:19:50 PM 40.8340 -73.6070 231° Southwest 145 167 1,900 -57 Descending FlightAware ADS-B
Thu 08:20:10 PM 40.8220 -73.6170 212° Southwest 147 169 1,900  Level FlightAware ADS-B
Thu 08:20:39 PM 40.8050 -73.6300 210° Southwest 146 168 1,900  Level FlightAware ADS-B
Thu 08:21:00 PM 40.7930 -73.6390 210° Southwest 148 170 1,900  Level FlightAware ADS-B
Thu 08:21:16 PM 40.7850 -73.6450 210° Southwest 147 169 1,900  Level FlightAware ADS-B
Thu 08:21:36 PM 40.7710 -73.6560 211° Southwest 148 170 1,900  Level FlightAware ADS-B
Thu 08:21:56 PM 40.7600 -73.6650 212° Southwest 148 170 1,900  Level FlightAware ADS-B
Thu 08:22:17 PM 40.7480 -73.6750 212° Southwest 146 168 1,900  Level FlightAware ADS-B
Thu 08:22:36 PM 40.7360 -73.6830 207° Southwest 124 143 1,900 -279 Level FlightAware ADS-B
Thu 08:23:00 PM 40.7250 -73.6920 212° Southwest 115 132 1,700 -545 Descending FlightAware ADS-B
Thu 08:23:20 PM 40.7170 -73.6990 214° Southwest 111 128 1,500 -600 Descending FlightAware ADS-B
Thu 08:23:40 PM 40.7080 -73.7060 211° Southwest 111 128 1,300 -571 Descending FlightAware ADS-B
Thu 08:24:02 PM 40.6980 -73.7140 211° Southwest 111 128 1,100 -571 Descending FlightAware ADS-B
Thu 08:24:22 PM 40.6890 -73.7200 207° Southwest 110 127 900 -600 Descending FlightAware ADS-B
Thu 08:24:42 PM 40.6800 -73.7280 214° Southwest 115 132 700 -533 Descending FlightAware ADS-B
Thu 08:25:07 PM 40.6690 -73.7360 209° Southwest 116 133 500 -585 Descending FlightAware ADS-B
Thu 08:25:23 PM 40.6607 -73.7427 211° Southwest 120 138 300 -750 Descending FlightAware ADS-B
Thu 08:26:07 PM 40.6400 -73.7590 211° Southwest 110 127 -409 Descending FlightAware ADS-B

Login

Don't have an account? Register now (free) for customized features, flight alerts, and more!